sensor_id;sensor_type;location;lat;lon;timestamp;pressure;altitude;pressure_sealevel;temperature;humidity
4199;BME280;2113;50.946;14.610;2024-02-16T00:00:14;97203.41;;;6.89;98.41
4199;BME280;2113;50.946;14.610;2024-02-16T00:03:10;97206.72;;;6.83;98.30
4199;BME280;2113;50.946;14.610;2024-02-16T00:05:44;97210.84;;;6.78;98.44
4199;BME280;2113;50.946;14.610;2024-02-16T00:08:13;97205.75;;;6.76;98.44
4199;BME280;2113;50.946;14.610;2024-02-16T00:10:42;97199.06;;;6.74;98.55
4199;BME280;2113;50.946;14.610;2024-02-16T00:13:11;97201.50;;;6.75;98.42
4199;BME280;2113;50.946;14.610;2024-02-16T00:15:40;97202.97;;;6.78;98.36
4199;BME280;2113;50.946;14.610;2024-02-16T00:18:09;97206.59;;;6.77;97.74
4199;BME280;2113;50.946;14.610;2024-02-16T00:20:37;97200.03;;;6.73;97.91
4199;BME280;2113;50.946;14.610;2024-02-16T00:23:06;97195.47;;;6.67;98.07
4199;BME280;2113;50.946;14.610;2024-02-16T00:25:35;97203.50;;;6.65;98.17
4199;BME280;2113;50.946;14.610;2024-02-16T00:28:03;97205.50;;;6.63;98.20
4199;BME280;2113;50.946;14.610;2024-02-16T00:30:32;97202.34;;;6.68;98.12
4199;BME280;2113;50.946;14.610;2024-02-16T00:33:01;97197.59;;;6.71;98.57
4199;BME280;2113;50.946;14.610;2024-02-16T00:35:29;97195.63;;;6.73;98.19
4199;BME280;2113;50.946;14.610;2024-02-16T00:38:00;97193.16;;;6.72;97.89
4199;BME280;2113;50.946;14.610;2024-02-16T00:40:30;97197.06;;;6.76;98.05
4199;BME280;2113;50.946;14.610;2024-02-16T00:43:03;97194.00;;;6.72;97.79
4199;BME280;2113;50.946;14.610;2024-02-16T00:45:31;97200.69;;;6.75;98.07
4199;BME280;2113;50.946;14.610;2024-02-16T00:48:01;97201.03;;;6.72;97.98
4199;BME280;2113;50.946;14.610;2024-02-16T00:50:30;97207.59;;;6.68;98.36
4199;BME280;2113;50.946;14.610;2024-02-16T00:52:59;97201.09;;;6.55;97.57
4199;BME280;2113;50.946;14.610;2024-02-16T00:55:27;97195.31;;;6.60;97.71
4199;BME280;2113;50.946;14.610;2024-02-16T00:57:56;97200.75;;;6.58;97.64
4199;BME280;2113;50.946;14.610;2024-02-16T01:00:26;97198.91;;;6.67;98.57
4199;BME280;2113;50.946;14.610;2024-02-16T01:02:55;97201.88;;;6.64;97.72
4199;BME280;2113;50.946;14.610;2024-02-16T01:05:23;97196.13;;;6.60;98.37
4199;BME280;2113;50.946;14.610;2024-02-16T01:07:51;97198.44;;;6.64;97.70
4199;BME280;2113;50.946;14.610;2024-02-16T01:10:20;97194.66;;;6.66;97.98
4199;BME280;2113;50.946;14.610;2024-02-16T01:12:48;97195.16;;;6.61;97.70
4199;BME280;2113;50.946;14.610;2024-02-16T01:15:22;97193.50;;;6.69;97.81
4199;BME280;2113;50.946;14.610;2024-02-16T01:18:44;97192.53;;;6.61;97.72
4199;BME280;2113;50.946;14.610;2024-02-16T01:24:57;97188.94;;;6.54;98.06
4199;BME280;2113;50.946;14.610;2024-02-16T01:27:26;97191.28;;;6.49;97.75
4199;BME280;2113;50.946;14.610;2024-02-16T01:29:55;97182.09;;;6.45;97.85
4199;BME280;2113;50.946;14.610;2024-02-16T01:32:25;97175.88;;;6.46;97.49
4199;BME280;2113;50.946;14.610;2024-02-16T01:34:54;97182.75;;;6.39;97.88
4199;BME280;2113;50.946;14.610;2024-02-16T01:37:25;97176.56;;;6.24;97.02
4199;BME280;2113;50.946;14.610;2024-02-16T01:39:54;97177.88;;;6.20;97.95
4199;BME280;2113;50.946;14.610;2024-02-16T01:42:23;97173.00;;;6.17;97.63
4199;BME280;2113;50.946;14.610;2024-02-16T01:44:51;97169.56;;;6.08;97.50
4199;BME280;2113;50.946;14.610;2024-02-16T01:47:20;97160.88;;;6.24;97.93
4199;BME280;2113;50.946;14.610;2024-02-16T01:49:49;97159.69;;;6.26;98.08
4199;BME280;2113;50.946;14.610;2024-02-16T01:52:18;97164.13;;;6.18;97.41
4199;BME280;2113;50.946;14.610;2024-02-16T01:54:46;97165.47;;;6.14;97.54
4199;BME280;2113;50.946;14.610;2024-02-16T01:57:15;97153.88;;;6.00;97.55
4199;BME280;2113;50.946;14.610;2024-02-16T01:59:43;97160.22;;;6.05;97.04
4199;BME280;2113;50.946;14.610;2024-02-16T02:02:12;97157.97;;;5.94;97.70
4199;BME280;2113;50.946;14.610;2024-02-16T02:04:41;97161.22;;;5.80;97.47
4199;BME280;2113;50.946;14.610;2024-02-16T02:07:15;97170.69;;;5.73;98.40
4199;BME280;2113;50.946;14.610;2024-02-16T02:09:44;97167.25;;;5.81;97.94
4199;BME280;2113;50.946;14.610;2024-02-16T02:12:12;97158.09;;;5.68;98.45
4199;BME280;2113;50.946;14.610;2024-02-16T02:14:40;97161.53;;;5.77;98.21
4199;BME280;2113;50.946;14.610;2024-02-16T02:17:08;97163.66;;;5.82;98.07
4199;BME280;2113;50.946;14.610;2024-02-16T02:19:38;97154.66;;;5.76;98.23
4199;BME280;2113;50.946;14.610;2024-02-16T02:22:13;97149.41;;;5.84;97.70
4199;BME280;2113;50.946;14.610;2024-02-16T02:24:43;97148.13;;;5.80;98.12
4199;BME280;2113;50.946;14.610;2024-02-16T02:27:12;97145.66;;;5.87;97.71
4199;BME280;2113;50.946;14.610;2024-02-16T02:29:41;97146.47;;;5.87;97.71
4199;BME280;2113;50.946;14.610;2024-02-16T02:32:09;97141.59;;;6.00;97.62
4199;BME280;2113;50.946;14.610;2024-02-16T02:34:37;97150.75;;;5.96;96.59
4199;BME280;2113;50.946;14.610;2024-02-16T02:37:07;97139.47;;;5.79;96.51
4199;BME280;2113;50.946;14.610;2024-02-16T02:39:37;97138.28;;;5.82;96.84
4199;BME280;2113;50.946;14.610;2024-02-16T02:42:06;97138.63;;;5.79;97.17
4199;BME280;2113;50.946;14.610;2024-02-16T02:44:36;97139.59;;;5.70;96.50
4199;BME280;2113;50.946;14.610;2024-02-16T02:47:04;97130.47;;;5.58;96.83
4199;BME280;2113;50.946;14.610;2024-02-16T02:49:35;97140.91;;;5.49;97.11
4199;BME280;2113;50.946;14.610;2024-02-16T02:52:03;97138.97;;;5.60;97.40
4199;BME280;2113;50.946;14.610;2024-02-16T02:54:33;97135.69;;;5.74;96.96
4199;BME280;2113;50.946;14.610;2024-02-16T02:57:04;97139.28;;;5.73;96.55
4199;BME280;2113;50.946;14.610;2024-02-16T02:59:33;97140.59;;;5.77;96.58
4199;BME280;2113;50.946;14.610;2024-02-16T03:02:01;97141.25;;;5.71;96.89
4199;BME280;2113;50.946;14.610;2024-02-16T03:04:30;97137.63;;;5.56;96.15
4199;BME280;2113;50.946;14.610;2024-02-16T03:07:00;97149.25;;;5.37;96.38
4199;BME280;2113;50.946;14.610;2024-02-16T03:09:29;97143.03;;;5.21;96.18
4199;BME280;2113;50.946;14.610;2024-02-16T03:11:58;97144.66;;;5.39;97.03
4199;BME280;2113;50.946;14.610;2024-02-16T03:14:28;97140.59;;;5.53;97.29
4199;BME280;2113;50.946;14.610;2024-02-16T03:16:56;97144.19;;;5.51;96.98
4199;BME280;2113;50.946;14.610;2024-02-16T03:19:24;97142.88;;;5.39;96.45
4199;BME280;2113;50.946;14.610;2024-02-16T03:21:53;97142.72;;;5.57;96.67
4199;BME280;2113;50.946;14.610;2024-02-16T03:24:21;97132.91;;;5.75;95.89
4199;BME280;2113;50.946;14.610;2024-02-16T03:26:49;97136.19;;;5.61;95.85
4199;BME280;2113;50.946;14.610;2024-02-16T03:29:17;97134.22;;;5.71;94.90
4199;BME280;2113;50.946;14.610;2024-02-16T03:31:47;97138.63;;;5.63;95.55
4199;BME280;2113;50.946;14.610;2024-02-16T03:34:15;97141.56;;;5.68;95.23
4199;BME280;2113;50.946;14.610;2024-02-16T03:36:43;97145.00;;;5.60;94.90
4199;BME280;2113;50.946;14.610;2024-02-16T03:39:12;97142.56;;;5.75;94.73
4199;BME280;2113;50.946;14.610;2024-02-16T03:41:47;97142.91;;;5.72;93.51
4199;BME280;2113;50.946;14.610;2024-02-16T03:44:15;97139.59;;;5.70;93.49
4199;BME280;2113;50.946;14.610;2024-02-16T03:46:44;97134.06;;;5.73;93.68
4199;BME280;2113;50.946;14.610;2024-02-16T03:49:13;97136.50;;;5.74;92.86
4199;BME280;2113;50.946;14.610;2024-02-16T03:51:42;97141.91;;;5.81;92.60
4199;BME280;2113;50.946;14.610;2024-02-16T03:54:10;97136.69;;;5.65;92.99
4199;BME280;2113;50.946;14.610;2024-02-16T03:56:38;97144.19;;;5.68;93.27
4199;BME280;2113;50.946;14.610;2024-02-16T03:59:06;97134.06;;;5.73;92.52
4199;BME280;2113;50.946;14.610;2024-02-16T04:01:37;97135.84;;;5.81;92.46
4199;BME280;2113;50.946;14.610;2024-02-16T04:04:05;97135.69;;;5.66;92.31
4199;BME280;2113;50.946;14.610;2024-02-16T04:06:35;97139.94;;;5.59;92.92
4199;BME280;2113;50.946;14.610;2024-02-16T04:09:03;97130.13;;;5.44;93.51
4199;BME280;2113;50.946;14.610;2024-02-16T04:11:33;97136.19;;;5.61;93.89
4199;BME280;2113;50.946;14.610;2024-02-16T04:14:02;97132.75;;;5.61;93.04
4199;BME280;2113;50.946;14.610;2024-02-16T04:16:33;97127.81;;;5.49;92.90
4199;BME280;2113;50.946;14.610;2024-02-16T04:19:01;97131.13;;;5.51;92.91
4199;BME280;2113;50.946;14.610;2024-02-16T04:21:30;97128.16;;;5.30;92.88
4199;BME280;2113;50.946;14.610;2024-02-16T04:23:59;97135.66;;;5.17;93.02
4199;BME280;2113;50.946;14.610;2024-02-16T04:26:29;97138.56;;;5.14;92.95
4199;BME280;2113;50.946;14.610;2024-02-16T04:28:57;97139.25;;;5.16;93.20
4199;BME280;2113;50.946;14.610;2024-02-16T04:31:25;97142.13;;;4.88;94.14
4199;BME280;2113;50.946;14.610;2024-02-16T04:33:54;97144.28;;;5.01;94.91
4199;BME280;2113;50.946;14.610;2024-02-16T04:36:22;97143.13;;;4.95;95.01
4199;BME280;2113;50.946;14.610;2024-02-16T04:38:50;97139.53;;;5.13;95.09
4199;BME280;2113;50.946;14.610;2024-02-16T04:41:21;97142.50;;;5.10;94.66
4199;BME280;2113;50.946;14.610;2024-02-16T04:43:49;97141.53;;;5.35;94.34
4199;BME280;2113;50.946;14.610;2024-02-16T04:46:17;97134.03;;;5.40;93.74
4199;BME280;2113;50.946;14.610;2024-02-16T04:48:46;97136.81;;;5.55;93.02
4199;BME280;2113;50.946;14.610;2024-02-16T04:51:15;97129.47;;;5.59;93.04
4199;BME280;2113;50.946;14.610;2024-02-16T04:53:44;97125.88;;;5.60;92.24
4199;BME280;2113;50.946;14.610;2024-02-16T04:56:13;97123.59;;;5.65;92.00
4199;BME280;2113;50.946;14.610;2024-02-16T04:58:44;97129.00;;;5.71;91.60
4199;BME280;2113;50.946;14.610;2024-02-16T05:01:12;97129.47;;;5.67;91.81
4199;BME280;2113;50.946;14.610;2024-02-16T05:03:42;97131.75;;;5.62;91.57
4199;BME280;2113;50.946;14.610;2024-02-16T05:06:11;97126.53;;;5.62;91.42
4199;BME280;2113;50.946;14.610;2024-02-16T05:08:39;97128.97;;;5.55;91.69
4199;BME280;2113;50.946;14.610;2024-02-16T05:11:08;97130.78;;;5.55;91.80
4199;BME280;2113;50.946;14.610;2024-02-16T05:13:36;97135.34;;;5.61;91.84
4199;BME280;2113;50.946;14.610;2024-02-16T05:16:09;97134.22;;;5.63;91.22
4199;BME280;2113;50.946;14.610;2024-02-16T05:18:39;97137.00;;;5.78;90.92
4199;BME280;2113;50.946;14.610;2024-02-16T05:21:07;97137.47;;;5.82;90.77
4199;BME280;2113;50.946;14.610;2024-02-16T05:23:36;97134.06;;;5.73;90.53
4199;BME280;2113;50.946;14.610;2024-02-16T05:26:04;97136.03;;;5.71;90.56
4199;BME280;2113;50.946;14.610;2024-02-16T05:28:33;97141.75;;;5.74;91.12
4199;BME280;2113;50.946;14.610;2024-02-16T05:31:14;97136.69;;;5.73;90.45
4199;BME280;2113;50.946;14.610;2024-02-16T05:33:46;97134.06;;;5.81;90.35
4199;BME280;2113;50.946;14.610;2024-02-16T05:36:16;97134.88;;;5.73;89.90
4199;BME280;2113;50.946;14.610;2024-02-16T05:38:47;97137.31;;;5.67;89.90
4199;BME280;2113;50.946;14.610;2024-02-16T05:41:17;97134.22;;;5.63;90.45
4199;BME280;2113;50.946;14.610;2024-02-16T05:43:46;97134.88;;;5.57;90.69
4199;BME280;2113;50.946;14.610;2024-02-16T05:46:17;97144.03;;;5.53;90.46
4199;BME280;2113;50.946;14.610;2024-02-16T05:48:46;97134.72;;;5.50;90.87
4199;BME280;2113;50.946;14.610;2024-02-16T05:51:14;97141.56;;;5.51;90.59
4199;BME280;2113;50.946;14.610;2024-02-16T05:53:42;97146.63;;;5.61;89.93
4199;BME280;2113;50.946;14.610;2024-02-16T05:56:12;97142.72;;;5.57;90.02
4199;BME280;2113;50.946;14.610;2024-02-16T05:58:40;97141.25;;;5.46;90.43
4199;BME280;2113;50.946;14.610;2024-02-16T06:01:09;97138.28;;;5.49;90.25
4199;BME280;2113;50.946;14.610;2024-02-16T06:03:42;97138.97;;;5.60;89.74
4199;BME280;2113;50.946;14.610;2024-02-16T06:06:11;97143.53;;;5.74;89.09
4199;BME280;2113;50.946;14.610;2024-02-16T06:08:40;97138.47;;;5.89;87.98
4199;BME280;2113;50.946;14.610;2024-02-16T06:11:09;97134.72;;;5.91;88.17
4199;BME280;2113;50.946;14.610;2024-02-16T06:13:37;97141.44;;;6.02;87.15
4199;BME280;2113;50.946;14.610;2024-02-16T06:16:07;97136.81;;;6.12;86.85
4199;BME280;2113;50.946;14.610;2024-02-16T06:18:36;97134.72;;;6.08;87.44
4199;BME280;2113;50.946;14.610;2024-02-16T06:21:06;97144.03;;;6.10;87.30
4199;BME280;2113;50.946;14.610;2024-02-16T06:23:34;97141.91;;;6.14;86.66
4199;BME280;2113;50.946;14.610;2024-02-16T06:26:02;97147.31;;;6.04;87.16
4199;BME280;2113;50.946;14.610;2024-02-16T06:28:31;97149.09;;;6.03;87.70
4199;BME280;2113;50.946;14.610;2024-02-16T06:30:59;97157.31;;;6.00;87.69
4199;BME280;2113;50.946;14.610;2024-02-16T06:33:27;97154.16;;;6.05;87.29
4199;BME280;2113;50.946;14.610;2024-02-16T06:35:56;97155.50;;;6.01;87.70
4199;BME280;2113;50.946;14.610;2024-02-16T06:38:54;97166.94;;;6.08;87.15
4199;BME280;2113;50.946;14.610;2024-02-16T06:41:23;97162.53;;;6.09;86.19
4199;BME280;2113;50.946;14.610;2024-02-16T06:43:54;97153.34;;;6.04;86.51
4199;BME280;2113;50.946;14.610;2024-02-16T06:46:22;97157.59;;;6.05;86.53
4199;BME280;2113;50.946;14.610;2024-02-16T06:48:51;97155.34;;;6.02;85.96
4199;BME280;2113;50.946;14.610;2024-02-16T06:51:23;97154.97;;;6.05;86.06
4199;BME280;2113;50.946;14.610;2024-02-16T06:53:54;97164.81;;;6.12;85.62
4199;BME280;2113;50.946;14.610;2024-02-16T06:56:23;97163.50;;;6.08;85.81
4199;BME280;2113;50.946;14.610;2024-02-16T06:58:52;97166.13;;;6.16;85.95
4199;BME280;2113;50.946;14.610;2024-02-16T07:01:20;97149.41;;;6.17;85.83
4199;BME280;2113;50.946;14.610;2024-02-16T07:03:49;97150.56;;;6.22;84.84
4199;BME280;2113;50.946;14.610;2024-02-16T07:06:18;97151.69;;;6.28;84.58
4199;BME280;2113;50.946;14.610;2024-02-16T07:08:46;97152.19;;;6.23;84.52
4199;BME280;2113;50.946;14.610;2024-02-16T07:11:16;97151.00;;;6.34;84.32
4199;BME280;2113;50.946;14.610;2024-02-16T07:13:45;97154.09;;;6.46;83.61
4199;BME280;2113;50.946;14.610;2024-02-16T07:16:13;97151.31;;;6.47;83.78
4199;BME280;2113;50.946;14.610;2024-02-16T07:18:42;97153.63;;;6.42;82.88
4199;BME280;2113;50.946;14.610;2024-02-16T07:21:11;97152.94;;;6.48;82.91
4199;BME280;2113;50.946;14.610;2024-02-16T07:23:39;97161.63;;;6.49;82.06
4199;BME280;2113;50.946;14.610;2024-02-16T07:26:09;97154.72;;;6.64;81.52
4199;BME280;2113;50.946;14.610;2024-02-16T07:28:38;97160.75;;;6.65;81.55
4199;BME280;2113;50.946;14.610;2024-02-16T07:31:07;97155.16;;;6.68;81.03
4199;BME280;2113;50.946;14.610;2024-02-16T07:33:36;97168.09;;;6.69;81.16
4199;BME280;2113;50.946;14.610;2024-02-16T07:36:05;97151.84;;;6.82;80.92
4199;BME280;2113;50.946;14.610;2024-02-16T07:38:35;97154.78;;;6.87;80.03
4199;BME280;2113;50.946;14.610;2024-02-16T07:41:03;97148.16;;;6.99;79.90
4199;BME280;2113;50.946;14.610;2024-02-16T07:43:36;97150.13;;;6.97;79.71
4199;BME280;2113;50.946;14.610;2024-02-16T07:46:07;97143.88;;;7.06;79.15
4199;BME280;2113;50.946;14.610;2024-02-16T07:48:35;97145.13;;;7.10;78.88
4199;BME280;2113;50.946;14.610;2024-02-16T07:51:04;97154.34;;;7.06;78.01
4199;BME280;2113;50.946;14.610;2024-02-16T07:53:32;97152.97;;;9.14;73.28
4199;BME280;2113;50.946;14.610;2024-02-16T07:56:01;97144.78;;;11.19;64.03
4199;BME280;2113;50.946;14.610;2024-02-16T07:58:29;97136.19;;;11.72;61.64
4199;BME280;2113;50.946;14.610;2024-02-16T08:00:58;97137.78;;;10.98;64.88
4199;BME280;2113;50.946;14.610;2024-02-16T08:03:28;97130.69;;;10.92;63.94
4199;BME280;2113;50.946;14.610;2024-02-16T08:05:56;97127.06;;;12.21;60.44
4199;BME280;2113;50.946;14.610;2024-02-16T08:08:25;97126.38;;;12.58;59.51
4199;BME280;2113;50.946;14.610;2024-02-16T08:10:54;97135.56;;;13.14;57.54
4199;BME280;2113;50.946;14.610;2024-02-16T08:13:22;97140.72;;;11.91;59.16
4199;BME280;2113;50.946;14.610;2024-02-16T08:15:49;97127.75;;;12.81;58.14
4199;BME280;2113;50.946;14.610;2024-02-16T08:18:18;97139.88;;;12.24;57.94
4199;BME280;2113;50.946;14.610;2024-02-16T08:20:49;97134.88;;;9.25;67.73
4199;BME280;2113;50.946;14.610;2024-02-16T08:23:18;97137.72;;;9.09;69.47
4199;BME280;2113;50.946;14.610;2024-02-16T08:25:48;97139.38;;;9.96;66.88
4199;BME280;2113;50.946;14.610;2024-02-16T08:28:16;97130.53;;;11.00;63.52
4199;BME280;2113;50.946;14.610;2024-02-16T08:30:44;97121.88;;;12.72;59.01
4199;BME280;2113;50.946;14.610;2024-02-16T08:33:12;97130.41;;;14.20;54.37
4199;BME280;2113;50.946;14.610;2024-02-16T08:35:41;97132.47;;;12.65;57.02
4199;BME280;2113;50.946;14.610;2024-02-16T08:38:13;97120.69;;;13.58;55.54
4199;BME280;2113;50.946;14.610;2024-02-16T08:40:41;97119.00;;;15.00;51.67
4199;BME280;2113;50.946;14.610;2024-02-16T08:43:10;97124.38;;;14.93;51.39
4199;BME280;2113;50.946;14.610;2024-02-16T08:45:38;97129.19;;;14.41;51.41
4199;BME280;2113;50.946;14.610;2024-02-16T08:48:09;97128.34;;;14.47;53.07
4199;BME280;2113;50.946;14.610;2024-02-16T08:50:38;97137.06;;;14.73;51.71
4199;BME280;2113;50.946;14.610;2024-02-16T08:53:06;97134.84;;;15.25;49.75
4199;BME280;2113;50.946;14.610;2024-02-16T08:55:38;97129.84;;;15.47;49.95
4199;BME280;2113;50.946;14.610;2024-02-16T08:58:07;97129.09;;;15.58;48.64
4199;BME280;2113;50.946;14.610;2024-02-16T09:00:35;97130.00;;;15.33;48.35
4199;BME280;2113;50.946;14.610;2024-02-16T09:03:04;97127.16;;;14.18;51.27
4199;BME280;2113;50.946;14.610;2024-02-16T09:05:35;97127.06;;;12.21;56.79
4199;BME280;2113;50.946;14.610;2024-02-16T09:08:04;97134.59;;;10.06;64.12
4199;BME280;2113;50.946;14.610;2024-02-16T09:10:33;97122.50;;;11.35;62.04
4199;BME280;2113;50.946;14.610;2024-02-16T09:13:05;97112.91;;;12.73;58.08
4199;BME280;2113;50.946;14.610;2024-02-16T09:15:36;97119.59;;;13.97;54.26
4199;BME280;2113;50.946;14.610;2024-02-16T09:18:05;97113.75;;;14.56;52.75
4199;BME280;2113;50.946;14.610;2024-02-16T09:20:34;97118.72;;;14.53;51.77
4199;BME280;2113;50.946;14.610;2024-02-16T09:23:02;97120.72;;;13.51;54.10
4199;BME280;2113;50.946;14.610;2024-02-16T09:25:31;97136.75;;;10.86;61.20
4199;BME280;2113;50.946;14.610;2024-02-16T09:27:59;97137.94;;;10.21;64.61
4199;BME280;2113;50.946;14.610;2024-02-16T09:30:29;97144.41;;;9.48;67.04
4199;BME280;2113;50.946;14.610;2024-02-16T09:32:57;97150.47;;;8.91;68.90
4199;BME280;2113;50.946;14.610;2024-02-16T09:35:25;97157.34;;;8.33;70.65
4199;BME280;2113;50.946;14.610;2024-02-16T09:37:54;97149.03;;;8.44;70.90
4199;BME280;2113;50.946;14.610;2024-02-16T09:40:24;97144.22;;;8.62;70.84
4199;BME280;2113;50.946;14.610;2024-02-16T09:42:53;97140.22;;;8.66;70.96
4199;BME280;2113;50.946;14.610;2024-02-16T09:45:21;97131.53;;;11.06;64.90
4199;BME280;2113;50.946;14.610;2024-02-16T09:47:54;97130.84;;;12.64;58.80
4199;BME280;2113;50.946;14.610;2024-02-16T09:50:33;97137.81;;;12.46;56.86
4199;BME280;2113;50.946;14.610;2024-02-16T09:53:03;97134.47;;;12.83;56.92
4199;BME280;2113;50.946;14.610;2024-02-16T09:55:32;97138.66;;;14.12;53.55
4199;BME280;2113;50.946;14.610;2024-02-16T09:58:02;97138.53;;;14.50;52.99
4199;BME280;2113;50.946;14.610;2024-02-16T10:00:32;97134.84;;;13.38;54.33
4199;BME280;2113;50.946;14.610;2024-02-16T10:03:02;97152.28;;;12.10;58.39
4199;BME280;2113;50.946;14.610;2024-02-16T10:05:32;97151.88;;;11.12;61.44
4199;BME280;2113;50.946;14.610;2024-02-16T10:08:24;97139.31;;;12.93;57.97
4199;BME280;2113;50.946;14.610;2024-02-16T10:11:00;97140.38;;;14.50;52.42
4199;BME280;2113;50.946;14.610;2024-02-16T10:13:30;97137.88;;;14.05;52.07
4199;BME280;2113;50.946;14.610;2024-02-16T10:16:09;97132.50;;;13.62;54.21
4199;BME280;2113;50.946;14.610;2024-02-16T10:18:40;97142.44;;;12.77;56.11
4199;BME280;2113;50.946;14.610;2024-02-16T10:21:08;97146.81;;;11.98;59.35
4199;BME280;2113;50.946;14.610;2024-02-16T10:23:37;97135.72;;;12.68;56.53
4199;BME280;2113;50.946;14.610;2024-02-16T10:26:10;97137.88;;;12.13;57.69
4199;BME280;2113;50.946;14.610;2024-02-16T10:28:38;97141.44;;;10.97;61.62
4199;BME280;2113;50.946;14.610;2024-02-16T10:31:09;97139.25;;;10.04;64.85
4199;BME280;2113;50.946;14.610;2024-02-16T10:33:37;97157.50;;;10.05;65.56
4199;BME280;2113;50.946;14.610;2024-02-16T10:36:08;97157.00;;;11.34;61.04
4199;BME280;2113;50.946;14.610;2024-02-16T10:38:37;97144.63;;;12.93;56.61
4199;BME280;2113;50.946;14.610;2024-02-16T10:41:08;97142.91;;;14.38;52.41
4199;BME280;2113;50.946;14.610;2024-02-16T10:43:37;97143.25;;;15.70;50.24
4199;BME280;2113;50.946;14.610;2024-02-16T10:46:06;97135.97;;;15.47;48.37
4199;BME280;2113;50.946;14.610;2024-02-16T10:48:37;97131.72;;;15.28;49.76
4199;BME280;2113;50.946;14.610;2024-02-16T10:51:09;97126.44;;;15.58;50.69
4199;BME280;2113;50.946;14.610;2024-02-16T10:53:38;97129.88;;;14.80;51.78
4199;BME280;2113;50.946;14.610;2024-02-16T10:56:07;97133.13;;;14.39;53.01
4199;BME280;2113;50.946;14.610;2024-02-16T10:58:39;97122.81;;;13.42;53.75
4199;BME280;2113;50.946;14.610;2024-02-16T11:01:09;97124.31;;;13.63;54.86
4199;BME280;2113;50.946;14.610;2024-02-16T11:03:40;97119.94;;;13.44;54.72
4199;BME280;2113;50.946;14.610;2024-02-16T11:06:18;97120.28;;;13.86;53.48
4199;BME280;2113;50.946;14.610;2024-02-16T11:08:48;97119.47;;;13.15;55.72
4199;BME280;2113;50.946;14.610;2024-02-16T11:11:22;97110.56;;;12.19;58.55
4199;BME280;2113;50.946;14.610;2024-02-16T11:13:54;97112.56;;;11.37;59.32
4199;BME280;2113;50.946;14.610;2024-02-16T11:16:22;97123.44;;;11.08;62.27
4199;BME280;2113;50.946;14.610;2024-02-16T11:18:53;97112.38;;;10.84;61.63
4199;BME280;2113;50.946;14.610;2024-02-16T11:21:23;97113.75;;;11.21;63.09
4199;BME280;2113;50.946;14.610;2024-02-16T11:23:52;97113.78;;;11.35;60.61
4199;BME280;2113;50.946;14.610;2024-02-16T11:26:22;97112.47;;;10.63;61.16
4199;BME280;2113;50.946;14.610;2024-02-16T11:28:51;97112.47;;;10.28;63.36
4199;BME280;2113;50.946;14.610;2024-02-16T11:31:21;97116.22;;;10.40;62.74
4199;BME280;2113;50.946;14.610;2024-02-16T11:33:49;97105.56;;;10.62;64.10
4199;BME280;2113;50.946;14.610;2024-02-16T11:36:18;97099.56;;;11.69;58.65
4199;BME280;2113;50.946;14.610;2024-02-16T11:38:48;97095.94;;;12.94;55.61
4199;BME280;2113;50.946;14.610;2024-02-16T11:41:16;97090.91;;;13.62;53.69
4199;BME280;2113;50.946;14.610;2024-02-16T11:43:44;97087.72;;;14.04;52.67
4199;BME280;2113;50.946;14.610;2024-02-16T11:46:14;97093.91;;;13.41;52.55
4199;BME280;2113;50.946;14.610;2024-02-16T11:48:44;97099.59;;;12.35;56.52
4199;BME280;2113;50.946;14.610;2024-02-16T11:51:16;97098.41;;;11.91;57.63
4199;BME280;2113;50.946;14.610;2024-02-16T11:53:45;97108.50;;;11.54;58.81
4199;BME280;2113;50.946;14.610;2024-02-16T11:56:25;97104.47;;;11.65;58.49
4199;BME280;2113;50.946;14.610;2024-02-16T11:58:53;97106.44;;;11.30;60.11
4199;BME280;2113;50.946;14.610;2024-02-16T12:01:23;97106.88;;;11.53;60.65
4199;BME280;2113;50.946;14.610;2024-02-16T12:03:52;97095.69;;;10.77;61.12
4199;BME280;2113;50.946;14.610;2024-02-16T12:06:21;97098.66;;;11.09;61.00
4199;BME280;2113;50.946;14.610;2024-02-16T12:08:51;97088.91;;;11.03;62.00
4199;BME280;2113;50.946;14.610;2024-02-16T12:11:20;97094.41;;;11.08;60.77
4199;BME280;2113;50.946;14.610;2024-02-16T12:13:50;97095.53;;;10.85;61.23
4199;BME280;2113;50.946;14.610;2024-02-16T12:16:19;97088.56;;;11.32;61.11
4199;BME280;2113;50.946;14.610;2024-02-16T12:18:48;97096.31;;;11.60;59.35
4199;BME280;2113;50.946;14.610;2024-02-16T12:21:17;97082.94;;;11.81;59.18
4199;BME280;2113;50.946;14.610;2024-02-16T12:23:48;97086.38;;;12.15;59.27
4199;BME280;2113;50.946;14.610;2024-02-16T12:26:17;97091.66;;;11.42;61.23
4199;BME280;2113;50.946;14.610;2024-02-16T12:28:45;97105.31;;;10.98;63.42
4199;BME280;2113;50.946;14.610;2024-02-16T12:31:19;97098.25;;;11.12;63.12
4199;BME280;2113;50.946;14.610;2024-02-16T12:34:13;97097.09;;;11.21;62.87
4199;BME280;2113;50.946;14.610;2024-02-16T12:36:47;97103.75;;;11.17;62.46
4199;BME280;2113;50.946;14.610;2024-02-16T12:39:49;97103.59;;;11.32;62.14
4199;BME280;2113;50.946;14.610;2024-02-16T12:42:17;97106.81;;;11.14;62.13
4199;BME280;2113;50.946;14.610;2024-02-16T12:44:45;97106.50;;;10.89;63.01
4199;BME280;2113;50.946;14.610;2024-02-16T12:47:15;97101.72;;;10.58;64.22
4199;BME280;2113;50.946;14.610;2024-02-16T12:49:44;97107.28;;;10.41;65.05
4199;BME280;2113;50.946;14.610;2024-02-16T12:52:19;97107.97;;;10.22;65.08
4199;BME280;2113;50.946;14.610;2024-02-16T12:54:49;97101.25;;;9.91;65.51
4199;BME280;2113;50.946;14.610;2024-02-16T12:57:19;97098.97;;;10.10;67.04
4199;BME280;2113;50.946;14.610;2024-02-16T12:59:47;97103.38;;;10.03;65.98
4199;BME280;2113;50.946;14.610;2024-02-16T13:02:17;97097.66;;;9.99;65.72
4199;BME280;2113;50.946;14.610;2024-02-16T13:04:45;97110.97;;;9.91;66.20
4199;BME280;2113;50.946;14.610;2024-02-16T13:07:14;97117.44;;;9.88;66.20
4199;BME280;2113;50.946;14.610;2024-02-16T13:09:43;97106.41;;;9.78;66.41
4199;BME280;2113;50.946;14.610;2024-02-16T13:12:12;97106.41;;;9.78;66.54
4199;BME280;2113;50.946;14.610;2024-02-16T13:14:44;97104.78;;;9.77;66.46
4199;BME280;2113;50.946;14.610;2024-02-16T13:17:12;97102.81;;;9.86;67.36
4199;BME280;2113;50.946;14.610;2024-02-16T13:19:42;97100.81;;;9.88;67.77
4199;BME280;2113;50.946;14.610;2024-02-16T13:22:10;97099.38;;;9.85;66.45
4199;BME280;2113;50.946;14.610;2024-02-16T13:24:38;97102.09;;;9.99;66.56
4199;BME280;2113;50.946;14.610;2024-02-16T13:27:07;97109.09;;;10.13;66.31
4199;BME280;2113;50.946;14.610;2024-02-16T13:29:36;97125.78;;;10.20;65.30
4199;BME280;2113;50.946;14.610;2024-02-16T13:32:04;97118.38;;;10.30;65.39
4199;BME280;2113;50.946;14.610;2024-02-16T13:34:33;97111.34;;;10.37;65.42